sensor_id;sensor_type;location;lat;lon;timestamp;P1;durP1;ratioP1;P2;durP2;ratioP2
3571;SDS011;7958;53.024;12.970;2023-03-31T00:00:09;6.60;;;3.43;;
3571;SDS011;7958;53.024;12.970;2023-03-31T00:02:36;5.80;;;2.83;;
3571;SDS011;7958;53.024;12.970;2023-03-31T00:05:07;8.43;;;2.80;;
3571;SDS011;7958;53.024;12.970;2023-03-31T00:07:34;6.63;;;3.00;;
3571;SDS011;7958;53.024;12.970;2023-03-31T00:10:02;12.50;;;3.17;;
3571;SDS011;7958;53.024;12.970;2023-03-31T00:12:29;12.40;;;3.77;;
3571;SDS011;7958;53.024;12.970;2023-03-31T00:14:56;11.87;;;3.77;;
3571;SDS011;7958;53.024;12.970;2023-03-31T00:17:22;5.17;;;3.17;;
3571;SDS011;7958;53.024;12.970;2023-03-31T00:19:48;10.60;;;3.17;;
3571;SDS011;7958;53.024;12.970;2023-03-31T00:22:16;12.10;;;3.40;;
3571;SDS011;7958;53.024;12.970;2023-03-31T00:24:46;8.43;;;3.00;;
3571;SDS011;7958;53.024;12.970;2023-03-31T00:27:12;8.23;;;3.40;;
3571;SDS011;7958;53.024;12.970;2023-03-31T00:29:39;6.77;;;3.47;;
3571;SDS011;7958;53.024;12.970;2023-03-31T00:32:07;9.53;;;3.57;;
3571;SDS011;7958;53.024;12.970;2023-03-31T00:34:34;7.03;;;3.73;;
3571;SDS011;7958;53.024;12.970;2023-03-31T00:37:01;6.50;;;2.93;;
3571;SDS011;7958;53.024;12.970;2023-03-31T00:39:29;5.70;;;3.63;;
3571;SDS011;7958;53.024;12.970;2023-03-31T00:42:00;9.73;;;3.73;;
3571;SDS011;7958;53.024;12.970;2023-03-31T00:44:29;7.77;;;3.53;;
3571;SDS011;7958;53.024;12.970;2023-03-31T00:46:58;8.13;;;3.27;;
3571;SDS011;7958;53.024;12.970;2023-03-31T00:49:27;8.23;;;3.97;;
3571;SDS011;7958;53.024;12.970;2023-03-31T00:51:56;8.63;;;4.10;;
3571;SDS011;7958;53.024;12.970;2023-03-31T00:54:26;9.73;;;3.57;;
3571;SDS011;7958;53.024;12.970;2023-03-31T00:56:56;4.17;;;3.00;;
3571;SDS011;7958;53.024;12.970;2023-03-31T00:59:29;8.83;;;3.57;;
3571;SDS011;7958;53.024;12.970;2023-03-31T01:01:56;11.83;;;3.73;;
3571;SDS011;7958;53.024;12.970;2023-03-31T01:04:26;5.17;;;3.47;;
3571;SDS011;7958;53.024;12.970;2023-03-31T01:06:55;7.73;;;3.70;;
3571;SDS011;7958;53.024;12.970;2023-03-31T01:09:25;9.70;;;3.63;;
3571;SDS011;7958;53.024;12.970;2023-03-31T01:11:56;10.83;;;3.90;;
3571;SDS011;7958;53.024;12.970;2023-03-31T01:14:23;6.80;;;3.50;;
3571;SDS011;7958;53.024;12.970;2023-03-31T01:16:49;6.00;;;2.90;;
3571;SDS011;7958;53.024;12.970;2023-03-31T01:19:18;7.97;;;3.80;;
3571;SDS011;7958;53.024;12.970;2023-03-31T01:21:57;8.57;;;3.60;;
3571;SDS011;7958;53.024;12.970;2023-03-31T01:25:03;6.53;;;3.30;;
3571;SDS011;7958;53.024;12.970;2023-03-31T01:28:07;8.37;;;3.80;;
3571;SDS011;7958;53.024;12.970;2023-03-31T01:30:44;5.13;;;3.10;;
3571;SDS011;7958;53.024;12.970;2023-03-31T01:36:24;11.70;;;3.67;;
3571;SDS011;7958;53.024;12.970;2023-03-31T01:39:23;3.57;;;2.60;;
3571;SDS011;7958;53.024;12.970;2023-03-31T01:42:17;4.23;;;3.30;;
3571;SDS011;7958;53.024;12.970;2023-03-31T01:44:48;6.00;;;3.40;;
3571;SDS011;7958;53.024;12.970;2023-03-31T01:47:19;7.50;;;3.33;;
3571;SDS011;7958;53.024;12.970;2023-03-31T01:49:50;7.60;;;2.87;;
3571;SDS011;7958;53.024;12.970;2023-03-31T01:52:22;5.43;;;2.93;;
3571;SDS011;7958;53.024;12.970;2023-03-31T01:54:51;10.07;;;2.90;;
3571;SDS011;7958;53.024;12.970;2023-03-31T01:57:22;7.33;;;3.20;;
3571;SDS011;7958;53.024;12.970;2023-03-31T01:59:54;10.00;;;3.10;;
3571;SDS011;7958;53.024;12.970;2023-03-31T02:02:24;3.73;;;2.73;;
3571;SDS011;7958;53.024;12.970;2023-03-31T02:04:54;4.47;;;2.60;;
3571;SDS011;7958;53.024;12.970;2023-03-31T02:07:23;6.10;;;2.87;;
3571;SDS011;7958;53.024;12.970;2023-03-31T02:09:55;5.67;;;2.60;;
3571;SDS011;7958;53.024;12.970;2023-03-31T02:12:25;8.67;;;3.10;;
3571;SDS011;7958;53.024;12.970;2023-03-31T02:14:54;5.13;;;2.10;;
3571;SDS011;7958;53.024;12.970;2023-03-31T02:17:22;15.93;;;3.20;;
3571;SDS011;7958;53.024;12.970;2023-03-31T02:19:54;6.90;;;2.43;;
3571;SDS011;7958;53.024;12.970;2023-03-31T02:22:22;4.87;;;2.50;;
3571;SDS011;7958;53.024;12.970;2023-03-31T02:24:49;7.63;;;2.90;;
3571;SDS011;7958;53.024;12.970;2023-03-31T02:27:17;5.00;;;2.50;;
3571;SDS011;7958;53.024;12.970;2023-03-31T02:29:48;4.13;;;2.87;;
3571;SDS011;7958;53.024;12.970;2023-03-31T02:32:17;16.30;;;2.93;;
3571;SDS011;7958;53.024;12.970;2023-03-31T02:34:46;5.63;;;2.97;;
3571;SDS011;7958;53.024;12.970;2023-03-31T02:37:13;5.63;;;2.53;;
3571;SDS011;7958;53.024;12.970;2023-03-31T02:39:41;4.67;;;3.37;;
3571;SDS011;7958;53.024;12.970;2023-03-31T02:42:09;6.30;;;3.03;;
3571;SDS011;7958;53.024;12.970;2023-03-31T02:44:36;8.87;;;3.73;;
3571;SDS011;7958;53.024;12.970;2023-03-31T02:47:06;5.73;;;3.30;;
3571;SDS011;7958;53.024;12.970;2023-03-31T02:49:34;6.87;;;2.90;;
3571;SDS011;7958;53.024;12.970;2023-03-31T02:52:14;11.13;;;3.47;;
3571;SDS011;7958;53.024;12.970;2023-03-31T02:54:55;5.33;;;3.00;;
3571;SDS011;7958;53.024;12.970;2023-03-31T02:57:36;4.63;;;2.63;;
3571;SDS011;7958;53.024;12.970;2023-03-31T03:00:12;10.47;;;2.83;;
3571;SDS011;7958;53.024;12.970;2023-03-31T03:02:47;2.83;;;2.50;;
3571;SDS011;7958;53.024;12.970;2023-03-31T03:05:20;7.20;;;3.07;;
3571;SDS011;7958;53.024;12.970;2023-03-31T03:07:53;4.43;;;2.87;;
3571;SDS011;7958;53.024;12.970;2023-03-31T03:10:26;3.57;;;2.33;;
3571;SDS011;7958;53.024;12.970;2023-03-31T03:12:56;4.57;;;2.87;;
3571;SDS011;7958;53.024;12.970;2023-03-31T03:15:29;5.47;;;2.67;;
3571;SDS011;7958;53.024;12.970;2023-03-31T03:17:57;4.90;;;2.07;;
3571;SDS011;7958;53.024;12.970;2023-03-31T03:20:24;3.73;;;2.37;;
3571;SDS011;7958;53.024;12.970;2023-03-31T03:22:50;5.87;;;2.87;;
3571;SDS011;7958;53.024;12.970;2023-03-31T03:25:17;5.67;;;2.53;;
3571;SDS011;7958;53.024;12.970;2023-03-31T03:27:46;6.60;;;2.70;;
3571;SDS011;7958;53.024;12.970;2023-03-31T03:30:12;12.77;;;2.77;;
3571;SDS011;7958;53.024;12.970;2023-03-31T03:32:40;3.07;;;2.53;;
3571;SDS011;7958;53.024;12.970;2023-03-31T03:35:09;3.90;;;2.70;;
3571;SDS011;7958;53.024;12.970;2023-03-31T03:37:35;5.90;;;2.60;;
3571;SDS011;7958;53.024;12.970;2023-03-31T03:40:02;3.83;;;2.53;;
3571;SDS011;7958;53.024;12.970;2023-03-31T03:42:29;8.70;;;3.03;;
3571;SDS011;7958;53.024;12.970;2023-03-31T03:44:56;4.90;;;2.90;;
3571;SDS011;7958;53.024;12.970;2023-03-31T03:47:22;3.73;;;2.63;;
3571;SDS011;7958;53.024;12.970;2023-03-31T03:49:49;5.10;;;2.50;;
3571;SDS011;7958;53.024;12.970;2023-03-31T03:52:16;10.50;;;3.37;;
3571;SDS011;7958;53.024;12.970;2023-03-31T03:54:43;4.40;;;2.50;;
3571;SDS011;7958;53.024;12.970;2023-03-31T03:57:09;3.70;;;2.60;;
3571;SDS011;7958;53.024;12.970;2023-03-31T03:59:36;5.47;;;2.83;;
3571;SDS011;7958;53.024;12.970;2023-03-31T04:02:03;6.17;;;3.07;;
3571;SDS011;7958;53.024;12.970;2023-03-31T04:04:30;4.70;;;2.90;;
3571;SDS011;7958;53.024;12.970;2023-03-31T04:06:56;7.00;;;2.80;;
3571;SDS011;7958;53.024;12.970;2023-03-31T04:09:24;7.70;;;3.40;;
3571;SDS011;7958;53.024;12.970;2023-03-31T04:11:50;6.93;;;3.43;;
3571;SDS011;7958;53.024;12.970;2023-03-31T04:14:17;8.50;;;3.03;;
3571;SDS011;7958;53.024;12.970;2023-03-31T04:16:43;5.93;;;2.93;;
3571;SDS011;7958;53.024;12.970;2023-03-31T04:19:11;9.93;;;2.57;;
3571;SDS011;7958;53.024;12.970;2023-03-31T04:21:37;4.20;;;2.80;;
3571;SDS011;7958;53.024;12.970;2023-03-31T04:24:09;3.93;;;2.70;;
3571;SDS011;7958;53.024;12.970;2023-03-31T04:26:41;4.23;;;2.33;;
3571;SDS011;7958;53.024;12.970;2023-03-31T04:29:10;4.50;;;2.77;;
3571;SDS011;7958;53.024;12.970;2023-03-31T04:31:38;5.80;;;2.90;;
3571;SDS011;7958;53.024;12.970;2023-03-31T04:34:06;7.23;;;3.23;;
3571;SDS011;7958;53.024;12.970;2023-03-31T04:36:37;8.70;;;3.10;;
3571;SDS011;7958;53.024;12.970;2023-03-31T04:39:06;3.93;;;2.70;;
3571;SDS011;7958;53.024;12.970;2023-03-31T04:41:35;3.90;;;2.47;;
3571;SDS011;7958;53.024;12.970;2023-03-31T04:44:03;5.67;;;2.80;;
3571;SDS011;7958;53.024;12.970;2023-03-31T04:46:30;5.97;;;3.20;;
3571;SDS011;7958;53.024;12.970;2023-03-31T04:48:57;6.07;;;2.90;;
3571;SDS011;7958;53.024;12.970;2023-03-31T04:51:24;6.10;;;2.70;;
3571;SDS011;7958;53.024;12.970;2023-03-31T04:53:51;4.60;;;2.83;;
3571;SDS011;7958;53.024;12.970;2023-03-31T04:56:17;4.47;;;2.93;;
3571;SDS011;7958;53.024;12.970;2023-03-31T04:58:43;7.93;;;2.90;;
3571;SDS011;7958;53.024;12.970;2023-03-31T05:01:11;3.40;;;2.77;;
3571;SDS011;7958;53.024;12.970;2023-03-31T05:03:42;6.80;;;3.30;;
3571;SDS011;7958;53.024;12.970;2023-03-31T05:06:08;7.20;;;2.50;;
3571;SDS011;7958;53.024;12.970;2023-03-31T05:08:35;7.63;;;2.97;;
3571;SDS011;7958;53.024;12.970;2023-03-31T05:11:01;6.53;;;3.17;;
3571;SDS011;7958;53.024;12.970;2023-03-31T05:13:28;5.87;;;3.43;;
3571;SDS011;7958;53.024;12.970;2023-03-31T05:15:55;11.07;;;3.43;;
3571;SDS011;7958;53.024;12.970;2023-03-31T05:18:22;5.30;;;3.00;;
3571;SDS011;7958;53.024;12.970;2023-03-31T05:20:49;4.70;;;2.60;;
3571;SDS011;7958;53.024;12.970;2023-03-31T05:23:15;9.40;;;3.00;;
3571;SDS011;7958;53.024;12.970;2023-03-31T05:25:42;14.27;;;3.60;;
3571;SDS011;7958;53.024;12.970;2023-03-31T05:28:08;7.13;;;3.00;;
3571;SDS011;7958;53.024;12.970;2023-03-31T05:30:35;7.23;;;3.20;;
3571;SDS011;7958;53.024;12.970;2023-03-31T05:33:01;3.77;;;2.77;;
3571;SDS011;7958;53.024;12.970;2023-03-31T05:35:29;2.90;;;2.60;;
3571;SDS011;7958;53.024;12.970;2023-03-31T05:37:56;6.13;;;3.00;;
3571;SDS011;7958;53.024;12.970;2023-03-31T05:40:22;5.80;;;2.97;;
3571;SDS011;7958;53.024;12.970;2023-03-31T05:42:48;3.63;;;2.80;;
3571;SDS011;7958;53.024;12.970;2023-03-31T05:45:15;4.77;;;2.53;;
3571;SDS011;7958;53.024;12.970;2023-03-31T05:47:41;4.47;;;2.97;;
3571;SDS011;7958;53.024;12.970;2023-03-31T05:50:08;8.20;;;2.87;;
3571;SDS011;7958;53.024;12.970;2023-03-31T05:52:36;7.50;;;2.77;;
3571;SDS011;7958;53.024;12.970;2023-03-31T05:55:02;4.03;;;2.10;;
3571;SDS011;7958;53.024;12.970;2023-03-31T05:57:29;2.70;;;2.00;;
3571;SDS011;7958;53.024;12.970;2023-03-31T05:59:55;4.97;;;2.13;;
3571;SDS011;7958;53.024;12.970;2023-03-31T06:02:22;4.23;;;1.80;;
3571;SDS011;7958;53.024;12.970;2023-03-31T06:04:48;5.80;;;2.27;;
3571;SDS011;7958;53.024;12.970;2023-03-31T06:07:16;6.23;;;2.10;;
3571;SDS011;7958;53.024;12.970;2023-03-31T06:09:45;2.90;;;1.60;;
3571;SDS011;7958;53.024;12.970;2023-03-31T06:12:11;2.60;;;1.83;;
3571;SDS011;7958;53.024;12.970;2023-03-31T06:14:38;2.87;;;1.53;;
3571;SDS011;7958;53.024;12.970;2023-03-31T06:17:04;3.73;;;2.10;;
3571;SDS011;7958;53.024;12.970;2023-03-31T06:19:31;8.03;;;2.20;;
3571;SDS011;7958;53.024;12.970;2023-03-31T06:21:57;2.47;;;1.70;;
3571;SDS011;7958;53.024;12.970;2023-03-31T06:24:24;6.00;;;2.40;;
3571;SDS011;7958;53.024;12.970;2023-03-31T06:26:51;3.63;;;1.60;;
3571;SDS011;7958;53.024;12.970;2023-03-31T06:29:18;2.13;;;1.93;;
3571;SDS011;7958;53.024;12.970;2023-03-31T06:31:45;1.63;;;1.53;;
3571;SDS011;7958;53.024;12.970;2023-03-31T06:34:12;3.33;;;1.77;;
3571;SDS011;7958;53.024;12.970;2023-03-31T06:36:39;4.97;;;1.73;;
3571;SDS011;7958;53.024;12.970;2023-03-31T06:39:05;1.73;;;1.50;;
3571;SDS011;7958;53.024;12.970;2023-03-31T06:41:32;4.33;;;1.90;;
3571;SDS011;7958;53.024;12.970;2023-03-31T06:44:00;2.43;;;1.83;;
3571;SDS011;7958;53.024;12.970;2023-03-31T06:46:26;4.47;;;1.60;;
3571;SDS011;7958;53.024;12.970;2023-03-31T06:48:53;4.10;;;1.70;;
3571;SDS011;7958;53.024;12.970;2023-03-31T06:51:19;2.60;;;1.63;;
3571;SDS011;7958;53.024;12.970;2023-03-31T06:53:45;4.10;;;1.67;;
3571;SDS011;7958;53.024;12.970;2023-03-31T06:56:12;2.20;;;1.53;;
3571;SDS011;7958;53.024;12.970;2023-03-31T06:58:38;6.10;;;1.83;;
3571;SDS011;7958;53.024;12.970;2023-03-31T07:01:06;2.30;;;1.60;;
3571;SDS011;7958;53.024;12.970;2023-03-31T07:03:32;5.80;;;1.63;;
3571;SDS011;7958;53.024;12.970;2023-03-31T07:05:59;2.73;;;1.20;;
3571;SDS011;7958;53.024;12.970;2023-03-31T07:08:26;3.63;;;1.77;;
3571;SDS011;7958;53.024;12.970;2023-03-31T07:10:53;4.97;;;1.80;;
3571;SDS011;7958;53.024;12.970;2023-03-31T07:13:21;3.83;;;1.90;;
3571;SDS011;7958;53.024;12.970;2023-03-31T07:15:48;3.17;;;1.60;;
3571;SDS011;7958;53.024;12.970;2023-03-31T07:18:17;2.47;;;1.53;;
3571;SDS011;7958;53.024;12.970;2023-03-31T07:20:46;4.90;;;1.77;;
3571;SDS011;7958;53.024;12.970;2023-03-31T07:23:13;2.97;;;2.13;;
3571;SDS011;7958;53.024;12.970;2023-03-31T07:25:40;2.07;;;1.87;;
3571;SDS011;7958;53.024;12.970;2023-03-31T07:28:06;4.33;;;1.50;;
3571;SDS011;7958;53.024;12.970;2023-03-31T07:30:32;3.40;;;1.40;;
3571;SDS011;7958;53.024;12.970;2023-03-31T07:33:00;2.13;;;1.47;;
3571;SDS011;7958;53.024;12.970;2023-03-31T07:35:28;4.40;;;1.57;;
3571;SDS011;7958;53.024;12.970;2023-03-31T07:37:54;3.33;;;1.60;;
3571;SDS011;7958;53.024;12.970;2023-03-31T07:40:22;5.40;;;1.50;;
3571;SDS011;7958;53.024;12.970;2023-03-31T07:42:49;2.60;;;1.50;;
3571;SDS011;7958;53.024;12.970;2023-03-31T07:45:17;5.33;;;1.63;;
3571;SDS011;7958;53.024;12.970;2023-03-31T07:47:44;2.23;;;1.50;;
3571;SDS011;7958;53.024;12.970;2023-03-31T07:50:11;2.10;;;1.30;;
3571;SDS011;7958;53.024;12.970;2023-03-31T07:52:39;3.57;;;1.77;;
3571;SDS011;7958;53.024;12.970;2023-03-31T07:55:06;3.20;;;1.80;;
3571;SDS011;7958;53.024;12.970;2023-03-31T07:57:33;7.63;;;2.20;;
3571;SDS011;7958;53.024;12.970;2023-03-31T08:00:00;1.93;;;1.50;;
3571;SDS011;7958;53.024;12.970;2023-03-31T08:02:30;3.07;;;1.80;;
3571;SDS011;7958;53.024;12.970;2023-03-31T08:04:57;5.03;;;1.70;;
3571;SDS011;7958;53.024;12.970;2023-03-31T08:07:23;4.20;;;1.50;;
3571;SDS011;7958;53.024;12.970;2023-03-31T08:09:51;5.50;;;1.57;;
3571;SDS011;7958;53.024;12.970;2023-03-31T08:12:18;3.73;;;1.50;;
3571;SDS011;7958;53.024;12.970;2023-03-31T08:14:45;4.57;;;1.57;;
3571;SDS011;7958;53.024;12.970;2023-03-31T08:17:11;4.20;;;1.53;;
3571;SDS011;7958;53.024;12.970;2023-03-31T08:19:38;4.07;;;1.60;;
3571;SDS011;7958;53.024;12.970;2023-03-31T08:22:04;8.80;;;1.80;;
3571;SDS011;7958;53.024;12.970;2023-03-31T08:24:30;4.30;;;2.00;;
3571;SDS011;7958;53.024;12.970;2023-03-31T08:26:58;2.67;;;1.63;;
3571;SDS011;7958;53.024;12.970;2023-03-31T08:29:25;6.60;;;2.00;;
3571;SDS011;7958;53.024;12.970;2023-03-31T08:31:52;4.30;;;1.93;;
3571;SDS011;7958;53.024;12.970;2023-03-31T08:34:18;5.90;;;1.80;;
3571;SDS011;7958;53.024;12.970;2023-03-31T08:36:45;5.20;;;2.20;;
3571;SDS011;7958;53.024;12.970;2023-03-31T08:39:11;3.77;;;2.00;;
3571;SDS011;7958;53.024;12.970;2023-03-31T08:41:43;4.10;;;1.50;;
3571;SDS011;7958;53.024;12.970;2023-03-31T08:44:15;8.07;;;3.00;;
3571;SDS011;7958;53.024;12.970;2023-03-31T08:46:43;3.37;;;2.00;;
3571;SDS011;7958;53.024;12.970;2023-03-31T08:49:11;4.60;;;2.07;;
3571;SDS011;7958;53.024;12.970;2023-03-31T08:51:40;4.40;;;1.80;;
3571;SDS011;7958;53.024;12.970;2023-03-31T08:54:09;3.90;;;2.70;;
3571;SDS011;7958;53.024;12.970;2023-03-31T08:56:39;4.30;;;2.03;;
3571;SDS011;7958;53.024;12.970;2023-03-31T08:59:12;3.57;;;2.40;;
3571;SDS011;7958;53.024;12.970;2023-03-31T09:01:46;10.77;;;2.93;;
3571;SDS011;7958;53.024;12.970;2023-03-31T09:04:19;6.10;;;2.00;;
3571;SDS011;7958;53.024;12.970;2023-03-31T09:06:54;7.90;;;2.33;;
3571;SDS011;7958;53.024;12.970;2023-03-31T09:09:24;4.10;;;2.00;;
3571;SDS011;7958;53.024;12.970;2023-03-31T09:11:55;3.50;;;2.37;;
3571;SDS011;7958;53.024;12.970;2023-03-31T09:14:26;4.27;;;1.63;;
3571;SDS011;7958;53.024;12.970;2023-03-31T09:16:58;8.90;;;2.30;;
3571;SDS011;7958;53.024;12.970;2023-03-31T09:19:34;3.83;;;2.03;;
3571;SDS011;7958;53.024;12.970;2023-03-31T09:22:02;3.63;;;1.60;;
3571;SDS011;7958;53.024;12.970;2023-03-31T09:24:32;3.20;;;2.13;;
3571;SDS011;7958;53.024;12.970;2023-03-31T09:27:02;3.60;;;2.00;;
3571;SDS011;7958;53.024;12.970;2023-03-31T09:29:36;3.70;;;2.47;;
3571;SDS011;7958;53.024;12.970;2023-03-31T09:32:10;10.90;;;2.27;;
3571;SDS011;7958;53.024;12.970;2023-03-31T09:34:39;5.53;;;2.00;;
3571;SDS011;7958;53.024;12.970;2023-03-31T09:37:07;8.77;;;3.10;;
3571;SDS011;7958;53.024;12.970;2023-03-31T09:39:34;6.43;;;2.43;;
3571;SDS011;7958;53.024;12.970;2023-03-31T09:42:00;3.30;;;1.67;;
3571;SDS011;7958;53.024;12.970;2023-03-31T09:44:33;4.77;;;1.90;;
3571;SDS011;7958;53.024;12.970;2023-03-31T09:47:03;4.53;;;1.63;;
3571;SDS011;7958;53.024;12.970;2023-03-31T09:49:32;3.03;;;1.90;;
3571;SDS011;7958;53.024;12.970;2023-03-31T09:52:00;4.00;;;1.93;;
3571;SDS011;7958;53.024;12.970;2023-03-31T09:54:36;3.90;;;1.80;;
3571;SDS011;7958;53.024;12.970;2023-03-31T09:57:14;5.40;;;2.20;;
3571;SDS011;7958;53.024;12.970;2023-03-31T09:59:51;5.30;;;1.60;;
3571;SDS011;7958;53.024;12.970;2023-03-31T10:02:28;8.90;;;1.97;;
3571;SDS011;7958;53.024;12.970;2023-03-31T10:05:00;4.50;;;2.20;;
3571;SDS011;7958;53.024;12.970;2023-03-31T10:07:27;5.20;;;2.23;;
3571;SDS011;7958;53.024;12.970;2023-03-31T10:09:54;7.00;;;2.40;;
3571;SDS011;7958;53.024;12.970;2023-03-31T10:12:21;6.20;;;2.00;;
3571;SDS011;7958;53.024;12.970;2023-03-31T10:14:52;6.57;;;2.40;;
3571;SDS011;7958;53.024;12.970;2023-03-31T10:17:22;4.97;;;2.00;;
3571;SDS011;7958;53.024;12.970;2023-03-31T10:19:50;6.77;;;2.00;;
3571;SDS011;7958;53.024;12.970;2023-03-31T10:22:26;5.40;;;2.07;;
3571;SDS011;7958;53.024;12.970;2023-03-31T10:24:53;5.87;;;2.23;;
3571;SDS011;7958;53.024;12.970;2023-03-31T10:27:33;5.97;;;1.80;;
3571;SDS011;7958;53.024;12.970;2023-03-31T10:30:02;2.90;;;2.07;;
3571;SDS011;7958;53.024;12.970;2023-03-31T10:32:29;4.53;;;1.60;;
3571;SDS011;7958;53.024;12.970;2023-03-31T10:35:04;9.20;;;1.90;;
3571;SDS011;7958;53.024;12.970;2023-03-31T10:37:32;9.27;;;1.93;;
3571;SDS011;7958;53.024;12.970;2023-03-31T10:40:00;3.30;;;1.70;;
3571;SDS011;7958;53.024;12.970;2023-03-31T10:42:30;3.50;;;1.60;;
3571;SDS011;7958;53.024;12.970;2023-03-31T10:45:10;6.33;;;2.50;;
3571;SDS011;7958;53.024;12.970;2023-03-31T10:47:38;4.03;;;1.90;;
3571;SDS011;7958;53.024;12.970;2023-03-31T10:50:11;3.70;;;2.27;;
3571;SDS011;7958;53.024;12.970;2023-03-31T10:52:42;5.50;;;1.73;;
3571;SDS011;7958;53.024;12.970;2023-03-31T10:55:10;3.43;;;2.03;;
3571;SDS011;7958;53.024;12.970;2023-03-31T10:57:39;6.10;;;2.00;;
3571;SDS011;7958;53.024;12.970;2023-03-31T11:00:13;6.40;;;1.80;;
3571;SDS011;7958;53.024;12.970;2023-03-31T11:02:56;3.07;;;2.07;;
3571;SDS011;7958;53.024;12.970;2023-03-31T11:05:29;5.63;;;2.03;;
3571;SDS011;7958;53.024;12.970;2023-03-31T11:08:00;8.33;;;2.50;;
3571;SDS011;7958;53.024;12.970;2023-03-31T11:10:36;20.17;;;8.77;;
3571;SDS011;7958;53.024;12.970;2023-03-31T11:13:14;5.50;;;2.70;;
3571;SDS011;7958;53.024;12.970;2023-03-31T11:15:48;5.20;;;2.67;;
3571;SDS011;7958;53.024;12.970;2023-03-31T11:18:24;5.93;;;2.57;;
3571;SDS011;7958;53.024;12.970;2023-03-31T11:20:59;7.67;;;3.30;;
3571;SDS011;7958;53.024;12.970;2023-03-31T11:23:34;4.70;;;2.40;;
3571;SDS011;7958;53.024;12.970;2023-03-31T11:26:07;5.60;;;2.30;;
3571;SDS011;7958;53.024;12.970;2023-03-31T11:28:38;5.53;;;3.23;;
3571;SDS011;7958;53.024;12.970;2023-03-31T11:31:15;6.83;;;3.90;;
3571;SDS011;7958;53.024;12.970;2023-03-31T11:33:56;8.40;;;4.13;;
3571;SDS011;7958;53.024;12.970;2023-03-31T11:36:37;5.37;;;3.07;;
3571;SDS011;7958;53.024;12.970;2023-03-31T11:39:23;7.60;;;2.93;;
3571;SDS011;7958;53.024;12.970;2023-03-31T11:41:54;3.33;;;2.57;;
3571;SDS011;7958;53.024;12.970;2023-03-31T11:44:23;4.43;;;1.93;;
3571;SDS011;7958;53.024;12.970;2023-03-31T11:46:52;7.40;;;2.87;;
3571;SDS011;7958;53.024;12.970;2023-03-31T11:49:21;2.97;;;2.13;;
3571;SDS011;7958;53.024;12.970;2023-03-31T11:51:50;4.90;;;2.43;;
3571;SDS011;7958;53.024;12.970;2023-03-31T11:54:22;4.27;;;1.97;;
3571;SDS011;7958;53.024;12.970;2023-03-31T11:56:51;3.40;;;1.97;;
3571;SDS011;7958;53.024;12.970;2023-03-31T11:59:18;3.63;;;2.07;;
3571;SDS011;7958;53.024;12.970;2023-03-31T12:01:47;4.87;;;2.03;;
3571;SDS011;7958;53.024;12.970;2023-03-31T12:04:20;5.53;;;2.00;;
3571;SDS011;7958;53.024;12.970;2023-03-31T12:06:50;3.20;;;2.10;;
3571;SDS011;7958;53.024;12.970;2023-03-31T12:09:18;3.97;;;2.37;;
3571;SDS011;7958;53.024;12.970;2023-03-31T12:11:49;9.93;;;2.60;;
3571;SDS011;7958;53.024;12.970;2023-03-31T12:14:23;3.60;;;2.00;;
3571;SDS011;7958;53.024;12.970;2023-03-31T12:16:53;4.90;;;2.50;;
3571;SDS011;7958;53.024;12.970;2023-03-31T12:19:23;5.43;;;2.10;;
3571;SDS011;7958;53.024;12.970;2023-03-31T12:21:54;4.97;;;1.83;;
3571;SDS011;7958;53.024;12.970;2023-03-31T12:24:21;7.10;;;2.30;;
3571;SDS011;7958;53.024;12.970;2023-03-31T12:26:50;4.40;;;2.10;;
3571;SDS011;7958;53.024;12.970;2023-03-31T12:29:25;7.20;;;2.40;;
3571;SDS011;7958;53.024;12.970;2023-03-31T12:31:54;5.17;;;2.37;;
3571;SDS011;7958;53.024;12.970;2023-03-31T12:34:23;8.10;;;2.40;;
3571;SDS011;7958;53.024;12.970;2023-03-31T12:36:55;6.23;;;2.30;;
3571;SDS011;7958;53.024;12.970;2023-03-31T12:39:32;4.80;;;2.03;;
3571;SDS011;7958;53.024;12.970;2023-03-31T12:42:05;4.50;;;2.50;;
3571;SDS011;7958;53.024;12.970;2023-03-31T12:44:43;3.30;;;2.30;;
3571;SDS011;7958;53.024;12.970;2023-03-31T12:47:27;3.83;;;2.07;;
3571;SDS011;7958;53.024;12.970;2023-03-31T12:50:17;4.07;;;2.43;;
3571;SDS011;7958;53.024;12.970;2023-03-31T12:53:03;5.77;;;2.10;;
3571;SDS011;7958;53.024;12.970;2023-03-31T12:55:36;3.17;;;2.20;;
3571;SDS011;7958;53.024;12.970;2023-03-31T13:01:05;3.63;;;2.27;;
3571;SDS011;7958;53.024;12.970;2023-03-31T13:12:07;2.17;;;1.70;;
3571;SDS011;7958;53.024;12.970;2023-03-31T13:14:38;3.13;;;1.40;;
3571;SDS011;7958;53.024;12.970;2023-03-31T13:17:12;1.77;;;1.40;;
3571;SDS011;7958;53.024;12.970;2023-03-31T13:19:45;1.53;;;1.00;;
3571;SDS011;7958;53.024;12.970;2023-03-31T13:22:27;1.20;;;1.10;;
3571;SDS011;7958;53.024;12.970;2023-03-31T13:28:10;1.57;;;1.00;;
3571;SDS011;7958;53.024;12.970;2023-03-31T13:30:43;0.83;;;0.73;;
3571;SDS011;7958;53.024;12.970;2023-03-31T13:33:17;5.63;;;1.80;;
3571;SDS011;7958;53.024;12.970;2023-03-31T13:35:46;5.60;;;2.80;;
3571;SDS011;7958;53.024;12.970;2023-03-31T13:38:16;2.37;;;1.10;;
3571;SDS011;7958;53.024;12.970;2023-03-31T13:41:02;4.07;;;1.43;;
3571;SDS011;7958;53.024;12.970;2023-03-31T13:43:41;6.60;;;3.47;;
3571;SDS011;7958;53.024;12.970;2023-03-31T13:49:23;4.10;;;1.37;;
3571;SDS011;7958;53.024;12.970;2023-03-31T13:52:08;2.63;;;1.37;;
3571;SDS011;7958;53.024;12.970;2023-03-31T13:54:39;2.87;;;1.43;;
3571;SDS011;7958;53.024;12.970;2023-03-31T13:57:24;3.33;;;1.30;;
3571;SDS011;7958;53.024;12.970;2023-03-31T14:00:10;3.33;;;1.20;;
3571;SDS011;7958;53.024;12.970;2023-03-31T14:02:44;3.20;;;1.63;;
3571;SDS011;7958;53.024;12.970;2023-03-31T14:05:22;3.73;;;1.20;;
3571;SDS011;7958;53.024;12.970;2023-03-31T14:07:52;7.37;;;1.63;;
3571;SDS011;7958;53.024;12.970;2023-03-31T14:10:22;2.83;;;2.10;;
3571;SDS011;7958;53.024;12.970;2023-03-31T14:12:50;3.53;;;1.70;;
3571;SDS011;7958;53.024;12.970;2023-03-31T14:15:17;2.27;;;1.50;;
3571;SDS011;7958;53.024;12.970;2023-03-31T14:17:45;4.10;;;2.03;;
3571;SDS011;7958;53.024;12.970;2023-03-31T14:20:17;3.40;;;1.70;;
3571;SDS011;7958;53.024;12.970;2023-03-31T14:22:51;5.70;;;1.70;;
3571;SDS011;7958;53.024;12.970;2023-03-31T14:25:29;2.97;;;1.53;;
3571;SDS011;7958;53.024;12.970;2023-03-31T14:28:03;4.00;;;1.80;;
3571;SDS011;7958;53.024;12.970;2023-03-31T14:30:38;3.27;;;1.47;;
3571;SDS011;7958;53.024;12.970;2023-03-31T14:33:14;2.97;;;1.87;;
3571;SDS011;7958;53.024;12.970;2023-03-31T14:35:50;3.90;;;2.20;;
3571;SDS011;7958;53.024;12.970;2023-03-31T14:38:22;4.43;;;1.90;;
3571;SDS011;7958;53.024;12.970;2023-03-31T14:40:50;3.30;;;2.03;;
3571;SDS011;7958;53.024;12.970;2023-03-31T14:43:20;2.60;;;1.73;;
3571;SDS011;7958;53.024;12.970;2023-03-31T14:45:51;1.73;;;1.30;;
3571;SDS011;7958;53.024;12.970;2023-03-31T14:48:22;2.23;;;1.67;;
3571;SDS011;7958;53.024;12.970;2023-03-31T14:50:49;4.43;;;1.97;;
3571;SDS011;7958;53.024;12.970;2023-03-31T14:53:16;2.50;;;2.00;;
3571;SDS011;7958;53.024;12.970;2023-03-31T14:55:43;4.30;;;2.03;;
3571;SDS011;7958;53.024;12.970;2023-03-31T14:58:13;6.50;;;2.03;;
3571;SDS011;7958;53.024;12.970;2023-03-31T15:00:41;4.33;;;1.77;;
3571;SDS011;7958;53.024;12.970;2023-03-31T15:03:11;7.63;;;3.20;;
3571;SDS011;7958;53.024;12.970;2023-03-31T15:05:39;5.87;;;4.37;;
3571;SDS011;7958;53.024;12.970;2023-03-31T15:08:07;3.30;;;3.00;;
3571;SDS011;7958;53.024;12.970;2023-03-31T15:10:37;1.90;;;1.80;;
3571;SDS011;7958;53.024;12.970;2023-03-31T15:13:06;3.97;;;2.50;;
3571;SDS011;7958;53.024;12.970;2023-03-31T15:15:34;4.33;;;1.70;;
3571;SDS011;7958;53.024;12.970;2023-03-31T15:18:00;2.37;;;2.10;;
3571;SDS011;7958;53.024;12.970;2023-03-31T15:20:29;1.83;;;1.30;;
3571;SDS011;7958;53.024;12.970;2023-03-31T15:22:57;1.83;;;1.73;;
3571;SDS011;7958;53.024;12.970;2023-03-31T15:25:25;5.90;;;2.47;;
3571;SDS011;7958;53.024;12.970;2023-03-31T15:27:53;1.67;;;1.57;;
3571;SDS011;7958;53.024;12.970;2023-03-31T15:30:22;2.63;;;1.87;;
3571;SDS011;7958;53.024;12.970;2023-03-31T15:32:50;3.70;;;2.00;;
3571;SDS011;7958;53.024;12.970;2023-03-31T15:35:19;1.80;;;1.70;;
3571;SDS011;7958;53.024;12.970;2023-03-31T15:37:47;2.53;;;1.67;;